createdAt,value
2022-10-21T00:00:08.191Z,20.90
2022-10-21T00:02:46.561Z,21.00
2022-10-21T00:05:23.253Z,21.10
2022-10-21T00:07:57.482Z,21.10
2022-10-21T00:10:31.756Z,21.10
2022-10-21T00:13:05.869Z,21.20
2022-10-21T00:15:39.796Z,21.60
2022-10-21T00:18:15.231Z,22.20
2022-10-21T00:20:51.285Z,22.60
2022-10-21T00:23:26.137Z,23.00
2022-10-21T00:26:02.649Z,23.20
2022-10-21T00:28:37.293Z,23.50
2022-10-21T00:31:13.283Z,23.70
2022-10-21T00:33:47.367Z,24.00
2022-10-21T00:36:23.767Z,23.90
2022-10-21T00:38:57.695Z,24.20
2022-10-21T00:41:32.051Z,24.20
2022-10-21T00:44:09.242Z,24.50
2022-10-21T00:46:46.720Z,24.60
2022-10-21T00:49:29.150Z,25.10
2022-10-21T00:52:07.836Z,25.10
2022-10-21T00:54:42.760Z,25.40
2022-10-21T00:57:17.881Z,26.00
2022-10-21T00:59:53.876Z,26.10
2022-10-21T01:02:28.089Z,26.10
2022-10-21T01:05:06.603Z,26.40
2022-10-21T01:07:43.468Z,26.60
2022-10-21T01:10:18.206Z,27.30
2022-10-21T01:13:10.375Z,27.60
2022-10-21T01:15:54.097Z,28.10
2022-10-21T01:18:35.075Z,28.50
2022-10-21T01:21:32.992Z,28.90
2022-10-21T01:24:56.012Z,28.00
2022-10-21T01:27:39.380Z,28.10
2022-10-21T01:30:34.265Z,28.40
2022-10-21T01:33:26.620Z,28.40
2022-10-21T01:36:07.952Z,28.70
2022-10-21T01:38:48.530Z,28.90
2022-10-21T01:41:29.785Z,28.80
2022-10-21T01:44:14.834Z,28.40
2022-10-21T01:46:54.641Z,28.10
2022-10-21T01:49:34.221Z,27.80
2022-10-21T01:52:10.013Z,28.00
2022-10-21T01:54:47.614Z,27.70
2022-10-21T01:57:25.110Z,27.90
2022-10-21T02:00:01.960Z,28.60
2022-10-21T02:02:44.813Z,28.60
2022-10-21T02:05:25.321Z,27.90
2022-10-21T02:08:00.895Z,28.40
2022-10-21T02:10:38.262Z,28.00
2022-10-21T02:13:14.364Z,28.30
2022-10-21T02:15:50.776Z,29.30
2022-10-21T02:18:28.444Z,29.10
2022-10-21T02:21:06.840Z,29.20
2022-10-21T02:23:47.799Z,29.60
2022-10-21T02:26:22.939Z,30.50
2022-10-21T02:29:00.540Z,31.30
2022-10-21T02:31:46.740Z,31.50
2022-10-21T02:34:31.578Z,31.40
2022-10-21T02:37:16.595Z,30.30
2022-10-21T02:39:56.558Z,30.50
2022-10-21T02:42:39.113Z,29.90
2022-10-21T02:45:14.948Z,29.20
2022-10-21T02:47:49.974Z,28.70
2022-10-21T02:50:26.234Z,29.50
2022-10-21T02:53:00.809Z,29.90
2022-10-21T02:55:35.206Z,29.80
2022-10-21T02:58:09.283Z,29.80
2022-10-21T03:00:43.695Z,29.20
2022-10-21T03:03:18.283Z,28.90
2022-10-21T03:05:55.319Z,29.40
2022-10-21T03:08:30.280Z,29.40
2022-10-21T03:11:04.790Z,29.70
2022-10-21T03:13:39.051Z,29.80
2022-10-21T03:16:13.697Z,28.50
2022-10-21T03:18:48.823Z,28.60
2022-10-21T03:21:24.956Z,28.70
2022-10-21T03:23:59.498Z,29.40
2022-10-21T03:26:33.129Z,29.90
2022-10-21T03:29:07.373Z,29.80
2022-10-21T03:31:42.234Z,30.00
2022-10-21T03:34:16.957Z,29.20
2022-10-21T03:36:54.217Z,28.90
2022-10-21T03:39:28.729Z,28.70
2022-10-21T03:42:03.146Z,28.30
2022-10-21T03:44:38.831Z,28.10
2022-10-21T03:47:13.505Z,27.90
2022-10-21T03:49:47.901Z,27.60
2022-10-21T03:52:23.897Z,27.80
2022-10-21T03:55:00.095Z,27.70
2022-10-21T03:57:35.794Z,27.70
2022-10-21T04:02:50.488Z,27.40
2022-10-21T04:05:24.549Z,27.50
2022-10-21T04:08:01.032Z,27.40
2022-10-21T04:10:35.410Z,27.10
2022-10-21T04:13:09.823Z,27.00
2022-10-21T04:15:44.681Z,26.70
2022-10-21T04:18:19.209Z,26.90
2022-10-21T04:20:54.999Z,26.90
2022-10-21T04:23:37.240Z,27.00
2022-10-21T04:26:12.121Z,27.00
2022-10-21T04:28:47.010Z,26.90
2022-10-21T04:31:21.393Z,26.90
2022-10-21T04:33:56.202Z,26.80
2022-10-21T04:36:30.982Z,26.90
2022-10-21T04:39:10.290Z,27.10
2022-10-21T04:41:44.173Z,27.10
2022-10-21T04:44:18.974Z,27.00
2022-10-21T04:46:53.467Z,26.80
2022-10-21T04:49:28.947Z,27.00
2022-10-21T04:52:04.765Z,27.20
2022-10-21T04:54:41.941Z,27.50
2022-10-21T04:57:17.775Z,27.50
2022-10-21T04:59:57.495Z,27.60
2022-10-21T05:02:32.348Z,27.40
2022-10-21T05:05:08.262Z,27.00
2022-10-21T05:07:43.872Z,27.00
2022-10-21T05:10:20.033Z,27.10
2022-10-21T05:12:54.617Z,27.00
2022-10-21T05:15:28.989Z,27.30
2022-10-21T05:18:05.677Z,27.50
2022-10-21T05:20:39.735Z,27.50
2022-10-21T05:23:14.531Z,27.60
2022-10-21T05:25:54.937Z,27.30
2022-10-21T05:28:29.518Z,27.30
2022-10-21T05:31:03.433Z,27.20
2022-10-21T05:33:46.314Z,27.20
2022-10-21T05:36:23.231Z,27.20
2022-10-21T05:38:58.396Z,27.10
2022-10-21T05:41:35.827Z,26.80
2022-10-21T05:44:13.400Z,26.80
2022-10-21T05:46:49.132Z,27.00
2022-10-21T05:49:28.866Z,27.20
2022-10-21T05:52:09.554Z,27.20
2022-10-21T05:54:44.175Z,27.20
2022-10-21T05:57:25.005Z,27.30
2022-10-21T05:59:59.546Z,27.50
2022-10-21T06:02:39.809Z,27.70
2022-10-21T06:05:14.057Z,27.90
2022-10-21T06:07:49.167Z,27.80
2022-10-21T06:10:28.165Z,27.60
2022-10-21T06:13:07.874Z,27.40
2022-10-21T06:15:44.517Z,27.40
2022-10-21T06:18:27.599Z,27.20
2022-10-21T06:21:02.897Z,27.20
2022-10-21T06:23:37.526Z,27.30
2022-10-21T06:26:15.042Z,27.40
2022-10-21T06:28:51.246Z,27.70
2022-10-21T06:31:31.115Z,27.70
2022-10-21T06:34:06.256Z,27.60
2022-10-21T06:36:41.791Z,27.70
2022-10-21T06:39:16.339Z,27.80
2022-10-21T06:41:51.530Z,27.90
2022-10-21T06:44:47.804Z,27.80
2022-10-21T06:47:22.704Z,27.50
2022-10-21T06:49:59.043Z,27.40
2022-10-21T06:52:37.261Z,27.40
2022-10-21T06:55:13.633Z,27.60
2022-10-21T06:57:47.681Z,27.60
2022-10-21T07:00:25.060Z,27.60
2022-10-21T07:03:02.407Z,27.50
2022-10-21T07:05:35.702Z,27.40
2022-10-21T07:08:12.757Z,27.40
2022-10-21T07:10:47.578Z,27.40
2022-10-21T07:13:25.965Z,27.30
2022-10-21T07:16:10.330Z,27.40
2022-10-21T07:18:48.286Z,27.50
2022-10-21T07:21:26.287Z,27.40
2022-10-21T07:24:04.973Z,27.10
2022-10-21T07:26:44.013Z,27.20
2022-10-21T07:29:26.735Z,26.80
2022-10-21T07:32:03.004Z,26.80
2022-10-21T07:34:36.420Z,26.90
2022-10-21T07:37:12.590Z,26.80
2022-10-21T07:39:46.761Z,26.80
2022-10-21T07:42:21.311Z,27.00
2022-10-21T07:45:00.782Z,27.10
2022-10-21T07:47:40.675Z,27.20
2022-10-21T07:50:16.660Z,27.30
2022-10-21T07:53:12.079Z,27.40
2022-10-21T07:55:48.741Z,27.40
2022-10-21T07:58:27.350Z,27.40
2022-10-21T08:01:04.998Z,27.30
2022-10-21T08:03:42.149Z,27.30
2022-10-21T08:06:17.586Z,27.50
2022-10-21T08:09:02.107Z,27.30
2022-10-21T08:11:38.447Z,27.20
2022-10-21T08:14:13.608Z,27.10
2022-10-21T08:16:47.477Z,27.10
2022-10-21T08:19:30.808Z,27.00
2022-10-21T08:22:05.716Z,26.90
2022-10-21T08:24:42.322Z,26.80
2022-10-21T08:27:17.450Z,26.90
2022-10-21T08:29:54.421Z,26.90
2022-10-21T08:32:30.410Z,27.00
2022-10-21T08:35:07.683Z,27.00
2022-10-21T08:37:43.739Z,27.00
2022-10-21T08:40:20.260Z,26.90
2022-10-21T08:42:54.442Z,26.80
2022-10-21T08:45:48.003Z,26.80
2022-10-21T08:48:27.391Z,26.70
2022-10-21T08:51:11.219Z,26.70
2022-10-21T08:53:50.283Z,26.70
2022-10-21T08:59:02.935Z,26.70
2022-10-21T09:01:43.521Z,26.70
2022-10-21T09:04:25.887Z,26.70
2022-10-21T09:07:10.579Z,26.70
2022-10-21T09:09:52.332Z,26.60
2022-10-21T09:12:37.405Z,26.60
2022-10-21T09:15:27.000Z,26.60
2022-10-21T09:18:20.622Z,26.50
2022-10-21T09:21:05.868Z,26.40
2022-10-21T09:23:57.023Z,26.40
2022-10-21T09:26:43.186Z,26.30
2022-10-21T09:29:38.855Z,26.20
2022-10-21T09:32:20.082Z,26.20
2022-10-21T09:35:02.079Z,26.20
2022-10-21T09:37:41.297Z,26.20
2022-10-21T09:40:22.892Z,26.20
2022-10-21T09:43:00.399Z,26.10
2022-10-21T09:45:42.071Z,26.10
2022-10-21T09:48:36.972Z,26.10
2022-10-21T09:51:25.403Z,26.00
2022-10-21T09:54:04.855Z,25.90
2022-10-21T09:56:48.143Z,25.90
2022-10-21T09:59:25.502Z,25.90
2022-10-21T10:02:09.465Z,25.80
2022-10-21T10:04:43.677Z,25.80
2022-10-21T10:07:31.446Z,25.70
2022-10-21T10:10:08.810Z,25.70
2022-10-21T10:12:59.589Z,25.70
2022-10-21T10:15:40.048Z,25.60
2022-10-21T10:18:27.969Z,25.50
2022-10-21T10:21:14.206Z,25.40
2022-10-21T10:23:51.524Z,25.40
2022-10-21T10:26:32.570Z,25.30
2022-10-21T10:29:14.350Z,25.30
2022-10-21T10:31:54.972Z,25.20
2022-10-21T10:34:36.410Z,25.20
2022-10-21T10:37:21.471Z,25.10
2022-10-21T10:40:03.336Z,25.10
2022-10-21T10:42:41.290Z,25.10
2022-10-21T10:45:24.606Z,25.00
2022-10-21T10:48:01.839Z,24.90
2022-10-21T10:50:57.333Z,24.90
2022-10-21T10:53:38.826Z,24.90
2022-10-21T10:56:24.274Z,24.70
2022-10-21T10:59:10.799Z,24.70
2022-10-21T11:01:57.931Z,24.70
2022-10-21T11:04:40.367Z,24.60
2022-10-21T11:07:24.103Z,24.60
2022-10-21T11:10:07.967Z,24.60
2022-10-21T11:12:43.328Z,24.50
2022-10-21T11:15:20.997Z,24.50
2022-10-21T11:18:17.111Z,24.50
2022-10-21T11:21:11.220Z,24.50
2022-10-21T11:23:58.656Z,24.50
2022-10-21T11:26:41.411Z,24.50
2022-10-21T11:29:34.845Z,24.50
2022-10-21T11:32:24.720Z,24.50
2022-10-21T11:35:21.260Z,24.40
2022-10-21T11:38:10.711Z,24.40
2022-10-21T11:40:53.828Z,24.30
2022-10-21T11:43:43.199Z,24.20
2022-10-21T11:46:22.709Z,24.20
2022-10-21T11:49:15.336Z,24.20
2022-10-21T11:52:03.256Z,24.20
2022-10-21T11:55:10.418Z,24.20
2022-10-21T11:57:55.973Z,24.20
2022-10-21T12:00:30.986Z,24.10
2022-10-21T12:03:30.145Z,24.10
2022-10-21T12:06:14.297Z,24.10
2022-10-21T12:08:56.624Z,24.10
2022-10-21T12:11:34.098Z,24.00
2022-10-21T12:14:21.904Z,24.00
2022-10-21T12:16:59.003Z,23.90
2022-10-21T12:19:35.274Z,23.90
2022-10-21T12:22:14.763Z,23.90
2022-10-21T12:25:01.102Z,23.80
2022-10-21T12:27:40.920Z,23.70
2022-10-21T12:30:23.514Z,23.70
2022-10-21T12:33:18.924Z,23.70
2022-10-21T12:36:00.919Z,23.70
2022-10-21T12:38:52.178Z,23.70
2022-10-21T12:41:35.742Z,23.70
2022-10-21T12:44:40.047Z,23.70
2022-10-21T12:47:32.351Z,23.70
2022-10-21T12:50:30.124Z,23.70
2022-10-21T12:53:28.235Z,23.70
2022-10-21T12:56:05.076Z,23.70
2022-10-21T12:58:48.696Z,23.70
2022-10-21T13:01:48.008Z,23.70
2022-10-21T13:04:58.010Z,23.70
2022-10-21T13:07:38.723Z,23.70
2022-10-21T13:10:33.712Z,23.70
2022-10-21T13:13:36.814Z,23.60
2022-10-21T13:16:48.025Z,23.60
2022-10-21T13:19:42.707Z,23.60
2022-10-21T13:22:19.629Z,23.60
2022-10-21T13:25:01.340Z,23.60
2022-10-21T13:27:39.860Z,23.60
2022-10-21T13:30:34.905Z,23.60
2022-10-21T13:33:11.351Z,23.60
2022-10-21T13:35:56.353Z,23.50
2022-10-21T13:38:33.513Z,23.50
2022-10-21T13:41:10.520Z,23.50
2022-10-21T13:43:58.454Z,23.50
2022-10-21T13:46:42.585Z,23.50
2022-10-21T13:49:32.170Z,23.50
2022-10-21T13:52:15.934Z,23.50
2022-10-21T13:54:51.140Z,23.50
2022-10-21T13:57:29.522Z,23.40
2022-10-21T14:00:09.811Z,23.40
2022-10-21T14:02:55.651Z,23.40
2022-10-21T14:05:35.909Z,23.40
2022-10-21T14:08:22.042Z,23.30
2022-10-21T14:11:01.696Z,23.30
2022-10-21T14:13:40.930Z,23.20
2022-10-21T14:16:23.905Z,23.10
2022-10-21T14:18:59.961Z,23.00
2022-10-21T14:21:40.281Z,22.90
2022-10-21T14:24:34.203Z,22.70
2022-10-21T14:27:13.340Z,22.80
2022-10-21T14:29:50.508Z,22.80
2022-10-21T14:32:27.123Z,22.80
2022-10-21T14:35:25.307Z,22.90
2022-10-21T14:38:01.741Z,22.90
2022-10-21T14:40:41.814Z,22.90
2022-10-21T14:43:24.008Z,22.90
2022-10-21T14:45:59.701Z,22.90
2022-10-21T14:48:36.358Z,22.90
2022-10-21T14:51:17.698Z,22.90
2022-10-21T14:54:02.535Z,22.80
2022-10-21T14:56:40.294Z,22.90
2022-10-21T14:59:24.219Z,22.80
2022-10-21T15:02:06.616Z,22.90
2022-10-21T15:04:57.132Z,22.90
2022-10-21T15:07:36.316Z,22.90
2022-10-21T15:10:22.714Z,22.90
2022-10-21T15:13:01.857Z,22.80
2022-10-21T15:15:54.990Z,22.80
2022-10-21T15:18:34.431Z,22.80
2022-10-21T15:21:14.371Z,22.80
2022-10-21T15:23:55.719Z,22.80
2022-10-21T15:26:34.765Z,22.80
2022-10-21T15:29:27.299Z,22.80
2022-10-21T15:32:03.118Z,22.70
2022-10-21T15:34:39.764Z,22.70
2022-10-21T15:37:15.087Z,22.60
2022-10-21T15:39:54.357Z,22.60
2022-10-21T15:42:29.466Z,22.60
2022-10-21T15:45:08.585Z,22.60
2022-10-21T15:47:54.071Z,22.60
2022-10-21T15:50:38.032Z,22.50
2022-10-21T15:53:17.675Z,22.60
2022-10-21T15:55:55.164Z,22.60
2022-10-21T15:58:29.648Z,22.50
2022-10-21T16:01:05.962Z,22.50
2022-10-21T16:03:46.207Z,22.50
2022-10-21T16:06:21.852Z,22.50
2022-10-21T16:09:01.257Z,22.50
2022-10-21T16:11:41.453Z,22.50
2022-10-21T16:14:25.758Z,22.50
2022-10-21T16:17:02.901Z,22.50
2022-10-21T16:19:36.480Z,22.50
2022-10-21T16:22:20.184Z,22.50
2022-10-21T16:24:55.148Z,22.50
2022-10-21T16:27:43.855Z,22.60
2022-10-21T16:30:25.957Z,22.50
2022-10-21T16:33:03.926Z,22.50
2022-10-21T16:35:38.417Z,22.50
2022-10-21T16:38:13.130Z,22.40
2022-10-21T16:40:52.797Z,22.40
2022-10-21T16:43:29.049Z,22.50
2022-10-21T16:46:07.818Z,22.40
2022-10-21T16:48:46.974Z,22.40
2022-10-21T16:51:24.748Z,22.40
2022-10-21T16:53:58.790Z,22.40
2022-10-21T16:56:33.884Z,22.40
2022-10-21T16:59:09.099Z,22.40
2022-10-21T17:01:43.973Z,22.40
2022-10-21T17:04:21.722Z,22.40
2022-10-21T17:06:57.641Z,22.40
2022-10-21T17:09:35.680Z,22.40
2022-10-21T17:12:16.607Z,22.40
2022-10-21T17:14:51.400Z,22.40
2022-10-21T17:17:25.912Z,22.40
2022-10-21T17:20:02.742Z,22.40
2022-10-21T17:22:43.258Z,22.40
2022-10-21T17:25:18.716Z,22.40
2022-10-21T17:27:53.050Z,22.30
2022-10-21T17:30:27.895Z,22.30
2022-10-21T17:33:02.885Z,22.30
2022-10-21T17:35:39.237Z,22.30
2022-10-21T17:38:15.056Z,22.20
2022-10-21T17:40:50.894Z,22.20
2022-10-21T17:43:24.911Z,22.10
2022-10-21T17:46:00.803Z,22.10
2022-10-21T17:48:35.148Z,22.10
2022-10-21T17:51:11.216Z,22.10
2022-10-21T17:53:44.587Z,22.10
2022-10-21T17:56:18.980Z,22.00
2022-10-21T17:58:56.788Z,22.00
2022-10-21T18:01:31.455Z,22.00
2022-10-21T18:04:05.817Z,22.00
2022-10-21T18:06:41.676Z,21.90
2022-10-21T18:09:15.669Z,21.80
2022-10-21T18:11:49.312Z,21.80
2022-10-21T18:14:22.653Z,21.70
2022-10-21T18:16:56.502Z,21.70
2022-10-21T18:19:33.438Z,21.70
2022-10-21T18:22:09.491Z,21.80
2022-10-21T18:24:43.973Z,21.90
2022-10-21T18:27:18.337Z,21.90
2022-10-21T18:29:52.126Z,21.90
2022-10-21T18:32:26.244Z,21.80
2022-10-21T18:35:00.445Z,21.90
2022-10-21T18:37:36.286Z,21.90
2022-10-21T18:40:11.248Z,21.90
2022-10-21T18:42:45.613Z,21.90
2022-10-21T18:45:19.646Z,21.90
2022-10-21T18:47:54.988Z,21.90
2022-10-21T18:50:28.969Z,21.90
2022-10-21T18:53:04.738Z,21.90
2022-10-21T18:55:38.547Z,21.90
2022-10-21T18:58:11.947Z,21.90
2022-10-21T19:00:46.111Z,21.90
2022-10-21T19:03:22.991Z,21.80
2022-10-21T19:05:57.500Z,21.80
2022-10-21T19:08:33.524Z,21.80
2022-10-21T19:11:07.555Z,21.80
2022-10-21T19:13:41.386Z,21.80
2022-10-21T19:16:15.632Z,21.80
2022-10-21T19:18:52.517Z,21.80
2022-10-21T19:21:27.366Z,21.80
2022-10-21T19:24:04.475Z,21.90
2022-10-21T19:26:39.225Z,21.80
2022-10-21T19:29:17.531Z,21.80
2022-10-21T19:31:52.316Z,21.80
2022-10-21T19:34:27.924Z,21.80
2022-10-21T19:37:02.532Z,21.80
2022-10-21T19:39:38.841Z,21.80
2022-10-21T19:42:18.094Z,21.80
2022-10-21T19:44:52.182Z,21.80
2022-10-21T19:47:26.285Z,21.70
2022-10-21T19:49:59.379Z,21.80
2022-10-21T19:52:33.585Z,21.80
2022-10-21T19:55:10.213Z,21.70
2022-10-21T19:57:43.770Z,21.80
2022-10-21T20:00:18.401Z,21.80
2022-10-21T20:02:53.228Z,21.80
2022-10-21T20:05:26.747Z,21.80
2022-10-21T20:08:04.712Z,21.80
2022-10-21T20:10:40.176Z,21.70
2022-10-21T20:13:15.502Z,21.60
2022-10-21T20:15:52.465Z,21.60
2022-10-21T20:18:27.506Z,21.60
2022-10-21T20:21:02.954Z,21.70
2022-10-21T20:23:37.280Z,21.70
2022-10-21T20:26:13.114Z,21.70
2022-10-21T20:28:46.640Z,21.70
2022-10-21T20:31:20.895Z,21.60
2022-10-21T20:33:55.913Z,21.60
2022-10-21T20:36:30.901Z,21.60
2022-10-21T20:39:05.761Z,21.50
2022-10-21T20:41:44.435Z,21.60
2022-10-21T20:44:20.433Z,21.50
2022-10-21T20:46:55.059Z,21.60
2022-10-21T20:49:29.284Z,21.50
2022-10-21T20:52:02.828Z,21.50
2022-10-21T20:54:36.828Z,21.50
2022-10-21T20:57:13.153Z,21.50
2022-10-21T20:59:47.338Z,21.50
2022-10-21T21:02:24.437Z,21.50
2022-10-21T21:04:58.509Z,21.50
2022-10-21T21:07:31.965Z,21.50
2022-10-21T21:10:05.422Z,21.40
2022-10-21T21:12:41.591Z,21.30
2022-10-21T21:15:16.228Z,21.30
2022-10-21T21:17:52.596Z,21.20
2022-10-21T21:20:27.133Z,21.20
2022-10-21T21:23:01.615Z,21.10
2022-10-21T21:25:37.589Z,21.10
2022-10-21T21:28:13.776Z,21.10
2022-10-21T21:30:54.594Z,21.20
2022-10-21T21:33:28.502Z,21.20
2022-10-21T21:36:02.589Z,21.20
2022-10-21T21:38:38.077Z,21.10
2022-10-21T21:41:12.160Z,21.10
2022-10-21T21:43:48.742Z,21.10
2022-10-21T21:46:25.767Z,21.10
2022-10-21T21:49:04.685Z,21.00
2022-10-21T21:51:40.002Z,21.00
2022-10-21T21:54:14.111Z,21.00
2022-10-21T21:56:47.832Z,21.00
2022-10-21T21:59:25.103Z,20.90
2022-10-21T22:01:59.414Z,20.90
2022-10-21T22:04:33.674Z,20.90
2022-10-21T22:07:08.129Z,20.80
2022-10-21T22:09:41.869Z,20.90
2022-10-21T22:12:16.301Z,20.90
2022-10-21T22:14:51.820Z,20.80
2022-10-21T22:17:25.575Z,20.80
2022-10-21T22:19:59.455Z,20.80
2022-10-21T22:22:33.457Z,20.80
2022-10-21T22:25:09.496Z,20.80
2022-10-21T22:27:43.127Z,20.80
2022-10-21T22:30:21.033Z,20.70
2022-10-21T22:32:55.455Z,20.70
2022-10-21T22:35:32.395Z,20.80
2022-10-21T22:38:06.752Z,20.70
2022-10-21T22:40:41.527Z,20.80
2022-10-21T22:43:14.871Z,20.80
2022-10-21T22:46:01.123Z,20.60
2022-10-21T22:48:43.254Z,20.50
2022-10-21T22:51:16.738Z,20.50
2022-10-21T22:53:55.221Z,20.50
2022-10-21T22:56:31.332Z,20.50
2022-10-21T22:59:05.481Z,20.60
2022-10-21T23:01:41.392Z,20.60
2022-10-21T23:04:16.333Z,20.60
2022-10-21T23:06:50.267Z,20.40
2022-10-21T23:09:23.468Z,20.50
2022-10-21T23:11:56.823Z,20.60
2022-10-21T23:14:33.631Z,20.60
2022-10-21T23:17:09.317Z,20.60
2022-10-21T23:19:42.831Z,20.50
2022-10-21T23:22:16.768Z,20.50
2022-10-21T23:24:50.694Z,20.50
2022-10-21T23:27:24.223Z,20.50
2022-10-21T23:29:58.206Z,20.50
2022-10-21T23:32:33.418Z,20.50
2022-10-21T23:35:11.277Z,20.50
2022-10-21T23:37:45.761Z,20.40
2022-10-21T23:40:20.058Z,20.50
2022-10-21T23:42:54.131Z,20.40
2022-10-21T23:45:29.825Z,20.40
2022-10-21T23:48:04.995Z,20.40
2022-10-21T23:50:43.874Z,20.40
2022-10-21T23:53:18.610Z,20.40
2022-10-21T23:55:52.569Z,20.40
2022-10-21T23:58:26.950Z,20.50
